sensor_id;sensor_type;location;lat;lon;timestamp;pressure;altitude;pressure_sealevel;temperature;humidity
30463;BME280;17256;43.618;25.336;2023-04-08T00:00:40;101022.47;;;7.09;100.00
30463;BME280;17256;43.618;25.336;2023-04-08T00:03:06;100797.25;;;5.80;100.00
30463;BME280;17256;43.618;25.336;2023-04-08T00:05:33;100821.09;;;6.12;100.00
30463;BME280;17256;43.618;25.336;2023-04-08T00:07:58;100878.28;;;6.38;100.00
30463;BME280;17256;43.618;25.336;2023-04-08T00:10:24;100810.50;;;6.09;100.00
30463;BME280;17256;43.618;25.336;2023-04-08T00:12:50;100896.34;;;6.39;100.00
30463;BME280;17256;43.618;25.336;2023-04-08T00:15:16;100848.06;;;6.24;100.00
30463;BME280;17256;43.618;25.336;2023-04-08T00:17:42;100913.13;;;6.61;100.00
30463;BME280;17256;43.618;25.336;2023-04-08T00:20:08;101019.41;;;7.13;100.00
30463;BME280;17256;43.618;25.336;2023-04-08T00:22:34;100904.91;;;6.44;100.00
30463;BME280;17256;43.618;25.336;2023-04-08T00:25:00;100820.53;;;6.01;100.00
30463;BME280;17256;43.618;25.336;2023-04-08T00:27:28;100855.19;;;6.16;100.00
30463;BME280;17256;43.618;25.336;2023-04-08T00:29:53;100833.34;;;6.08;100.00
30463;BME280;17256;43.618;25.336;2023-04-08T00:32:19;100813.09;;;5.85;100.00
30463;BME280;17256;43.618;25.336;2023-04-08T00:34:44;100826.50;;;5.96;100.00
30463;BME280;17256;43.618;25.336;2023-04-08T00:37:10;100849.34;;;6.03;100.00
30463;BME280;17256;43.618;25.336;2023-04-08T00:39:36;101093.06;;;7.38;100.00
30463;BME280;17256;43.618;25.336;2023-04-08T00:42:02;100922.94;;;6.37;100.00
30463;BME280;17256;43.618;25.336;2023-04-08T00:44:28;100852.72;;;5.97;100.00
30463;BME280;17256;43.618;25.336;2023-04-08T00:46:54;100884.56;;;6.31;100.00
30463;BME280;17256;43.618;25.336;2023-04-08T00:49:19;100850.91;;;6.14;100.00
30463;BME280;17256;43.618;25.336;2023-04-08T00:51:45;100903.47;;;6.24;100.00
30463;BME280;17256;43.618;25.336;2023-04-08T00:54:11;100885.94;;;6.35;100.00
30463;BME280;17256;43.618;25.336;2023-04-08T00:56:36;101100.44;;;7.46;100.00
30463;BME280;17256;43.618;25.336;2023-04-08T00:59:03;100854.00;;;5.85;100.00
30463;BME280;17256;43.618;25.336;2023-04-08T01:09:17;101050.22;;;6.89;100.00
30463;BME280;17256;43.618;25.336;2023-04-08T01:11:45;100755.69;;;5.18;100.00
30463;BME280;17256;43.618;25.336;2023-04-08T01:14:20;100922.41;;;6.26;100.00
30463;BME280;17256;43.618;25.336;2023-04-08T01:16:50;100693.66;;;4.96;100.00
30463;BME280;17256;43.618;25.336;2023-04-08T01:19:24;100834.56;;;5.80;100.00
30463;BME280;17256;43.618;25.336;2023-04-08T01:21:52;101094.56;;;7.25;100.00
30463;BME280;17256;43.618;25.336;2023-04-08T01:24:25;100944.72;;;6.21;100.00
30463;BME280;17256;43.618;25.336;2023-04-08T01:26:55;100777.88;;;5.23;100.00
30463;BME280;17256;43.618;25.336;2023-04-08T01:29:23;100980.50;;;6.60;100.00
30463;BME280;17256;43.618;25.336;2023-04-08T01:31:52;100823.22;;;5.67;100.00
30463;BME280;17256;43.618;25.336;2023-04-08T01:34:20;100799.66;;;5.23;100.00
30463;BME280;17256;43.618;25.336;2023-04-08T01:36:46;100807.13;;;5.47;100.00
30463;BME280;17256;43.618;25.336;2023-04-08T01:39:14;100887.94;;;5.91;100.00
30463;BME280;17256;43.618;25.336;2023-04-08T01:41:41;100831.00;;;5.53;100.00
30463;BME280;17256;43.618;25.336;2023-04-08T01:44:09;100794.53;;;5.20;100.00
30463;BME280;17256;43.618;25.336;2023-04-08T01:46:35;100845.72;;;5.69;100.00
30463;BME280;17256;43.618;25.336;2023-04-08T01:49:02;100806.38;;;5.37;100.00
30463;BME280;17256;43.618;25.336;2023-04-08T01:51:29;100798.91;;;5.39;100.00
30463;BME280;17256;43.618;25.336;2023-04-08T01:53:56;100927.03;;;5.99;100.00
30463;BME280;17256;43.618;25.336;2023-04-08T01:56:22;100752.91;;;5.02;100.00
30463;BME280;17256;43.618;25.336;2023-04-08T01:58:53;100736.28;;;4.87;100.00
30463;BME280;17256;43.618;25.336;2023-04-08T02:01:21;100879.50;;;5.76;100.00
30463;BME280;17256;43.618;25.336;2023-04-08T02:03:50;101027.25;;;6.65;100.00
30463;BME280;17256;43.618;25.336;2023-04-08T02:06:19;100885.66;;;5.78;100.00
30463;BME280;17256;43.618;25.336;2023-04-08T02:08:45;100863.41;;;5.65;100.00
30463;BME280;17256;43.618;25.336;2023-04-08T02:11:11;100869.50;;;5.59;100.00
30463;BME280;17256;43.618;25.336;2023-04-08T02:13:37;100853.03;;;5.68;100.00
30463;BME280;17256;43.618;25.336;2023-04-08T02:16:24;101085.44;;;7.00;100.00
30463;BME280;17256;43.618;25.336;2023-04-08T02:19:14;101077.94;;;7.02;100.00
30463;BME280;17256;43.618;25.336;2023-04-08T02:21:48;100835.63;;;5.61;100.00
30463;BME280;17256;43.618;25.336;2023-04-08T02:24:16;100837.88;;;5.40;100.00
30463;BME280;17256;43.618;25.336;2023-04-08T02:26:43;100867.94;;;5.82;100.00
30463;BME280;17256;43.618;25.336;2023-04-08T02:29:14;100759.84;;;4.97;100.00
30463;BME280;17256;43.618;25.336;2023-04-08T02:31:41;100974.25;;;6.34;100.00
30463;BME280;17256;43.618;25.336;2023-04-08T02:34:11;100779.19;;;5.19;100.00
30463;BME280;17256;43.618;25.336;2023-04-08T02:36:38;101104.88;;;6.97;100.00
30463;BME280;17256;43.618;25.336;2023-04-08T02:39:06;100817.81;;;5.41;100.00
30463;BME280;17256;43.618;25.336;2023-04-08T02:41:32;100857.97;;;5.65;100.00
30463;BME280;17256;43.618;25.336;2023-04-08T02:43:57;100844.28;;;5.56;100.00
30463;BME280;17256;43.618;25.336;2023-04-08T02:46:23;100821.44;;;5.23;100.00
30463;BME280;17256;43.618;25.336;2023-04-08T02:48:49;100706.31;;;4.79;100.00
30463;BME280;17256;43.618;25.336;2023-04-08T02:51:15;101037.25;;;6.48;100.00
30463;BME280;17256;43.618;25.336;2023-04-08T02:53:40;100968.41;;;6.21;100.00
30463;BME280;17256;43.618;25.336;2023-04-08T02:56:09;100700.91;;;4.61;100.00
30463;BME280;17256;43.618;25.336;2023-04-08T02:58:35;100926.72;;;5.84;100.00
30463;BME280;17256;43.618;25.336;2023-04-08T03:01:01;100778.09;;;5.04;100.00
30463;BME280;17256;43.618;25.336;2023-04-08T03:03:26;100837.56;;;5.43;100.00
30463;BME280;17256;43.618;25.336;2023-04-08T03:05:54;100848.78;;;5.40;100.00
30463;BME280;17256;43.618;25.336;2023-04-08T03:08:21;100834.38;;;5.47;100.00
30463;BME280;17256;43.618;25.336;2023-04-08T03:10:47;100829.81;;;5.30;100.00
30463;BME280;17256;43.618;25.336;2023-04-08T03:13:14;100992.50;;;6.41;100.00
30463;BME280;17256;43.618;25.336;2023-04-08T03:15:39;100904.72;;;5.78;100.00
30463;BME280;17256;43.618;25.336;2023-04-08T03:18:05;100923.97;;;6.02;100.00
30463;BME280;17256;43.618;25.336;2023-04-08T03:20:30;100979.06;;;6.14;100.00
30463;BME280;17256;43.618;25.336;2023-04-08T03:22:56;100884.63;;;5.79;100.00
30463;BME280;17256;43.618;25.336;2023-04-08T03:25:22;100821.81;;;5.54;100.00
30463;BME280;17256;43.618;25.336;2023-04-08T03:27:47;100899.25;;;5.96;100.00
30463;BME280;17256;43.618;25.336;2023-04-08T03:30:13;100790.34;;;5.34;100.00
30463;BME280;17256;43.618;25.336;2023-04-08T03:32:38;100781.66;;;5.31;100.00
30463;BME280;17256;43.618;25.336;2023-04-08T03:35:05;100891.09;;;6.04;100.00
30463;BME280;17256;43.618;25.336;2023-04-08T03:37:31;100904.59;;;5.87;100.00
30463;BME280;17256;43.618;25.336;2023-04-08T03:39:56;100897.38;;;5.96;100.00
30463;BME280;17256;43.618;25.336;2023-04-08T03:42:22;100831.00;;;5.53;100.00
30463;BME280;17256;43.618;25.336;2023-04-08T03:44:48;100943.25;;;6.09;100.00
30463;BME280;17256;43.618;25.336;2023-04-08T03:47:15;100855.78;;;5.42;100.00
30463;BME280;17256;43.618;25.336;2023-04-08T03:49:40;100851.88;;;5.45;100.00
30463;BME280;17256;43.618;25.336;2023-04-08T03:52:06;101058.38;;;6.81;100.00
30463;BME280;17256;43.618;25.336;2023-04-08T03:54:31;100940.38;;;6.10;100.00
30463;BME280;17256;43.618;25.336;2023-04-08T03:56:57;100951.81;;;6.14;100.00
30463;BME280;17256;43.618;25.336;2023-04-08T03:59:22;100938.47;;;6.03;100.00
30463;BME280;17256;43.618;25.336;2023-04-08T04:01:49;100977.81;;;6.34;100.00
30463;BME280;17256;43.618;25.336;2023-04-08T04:04:15;100864.09;;;5.67;100.00
30463;BME280;17256;43.618;25.336;2023-04-08T04:06:41;100867.97;;;5.56;100.00
30463;BME280;17256;43.618;25.336;2023-04-08T04:09:07;100776.47;;;4.93;100.00
30463;BME280;17256;43.618;25.336;2023-04-08T04:11:36;101125.56;;;6.99;100.00
30463;BME280;17256;43.618;25.336;2023-04-08T04:14:02;100922.94;;;5.77;100.00
30463;BME280;17256;43.618;25.336;2023-04-08T04:16:28;100923.09;;;5.50;100.00
30463;BME280;17256;43.618;25.336;2023-04-08T04:18:53;100977.03;;;5.90;100.00
30463;BME280;17256;43.618;25.336;2023-04-08T04:21:19;100849.13;;;5.19;100.00
30463;BME280;17256;43.618;25.336;2023-04-08T04:23:45;100895.88;;;5.32;100.00
30463;BME280;17256;43.618;25.336;2023-04-08T04:26:10;100851.94;;;5.27;100.00
30463;BME280;17256;43.618;25.336;2023-04-08T04:28:37;100929.78;;;5.55;100.00
30463;BME280;17256;43.618;25.336;2023-04-08T04:31:03;100888.72;;;5.31;100.00
30463;BME280;17256;43.618;25.336;2023-04-08T04:33:29;100963.00;;;5.85;100.00
30463;BME280;17256;43.618;25.336;2023-04-08T04:35:55;100854.72;;;5.17;100.00
30463;BME280;17256;43.618;25.336;2023-04-08T04:38:21;101008.06;;;6.15;100.00
30463;BME280;17256;43.618;25.336;2023-04-08T04:40:47;100807.19;;;4.86;100.00
30463;BME280;17256;43.618;25.336;2023-04-08T04:43:12;100768.25;;;4.68;100.00
30463;BME280;17256;43.618;25.336;2023-04-08T04:45:38;100918.44;;;5.68;100.00
30463;BME280;17256;43.618;25.336;2023-04-08T04:48:03;101139.72;;;7.03;100.00
30463;BME280;17256;43.618;25.336;2023-04-08T04:50:29;100963.09;;;5.93;100.00
30463;BME280;17256;43.618;25.336;2023-04-08T04:52:55;100850.59;;;5.31;100.00
30463;BME280;17256;43.618;25.336;2023-04-08T04:55:20;100973.09;;;6.10;100.00
30463;BME280;17256;43.618;25.336;2023-04-08T04:57:49;100892.19;;;5.67;100.00
30463;BME280;17256;43.618;25.336;2023-04-08T05:00:14;100929.34;;;5.94;100.00
30463;BME280;17256;43.618;25.336;2023-04-08T05:02:41;100824.38;;;5.30;100.00
30463;BME280;17256;43.618;25.336;2023-04-08T05:05:07;100933.19;;;5.83;100.00
30463;BME280;17256;43.618;25.336;2023-04-08T05:07:36;101061.00;;;6.56;100.00
30463;BME280;17256;43.618;25.336;2023-04-08T05:10:03;100973.19;;;6.27;100.00
30463;BME280;17256;43.618;25.336;2023-04-08T05:12:29;101051.88;;;6.73;100.00
30463;BME280;17256;43.618;25.336;2023-04-08T05:14:57;101069.75;;;7.10;100.00
30463;BME280;17256;43.618;25.336;2023-04-08T05:17:24;101110.81;;;7.26;100.00
30463;BME280;17256;43.618;25.336;2023-04-08T05:19:50;100907.66;;;6.10;100.00
30463;BME280;17256;43.618;25.336;2023-04-08T05:22:17;100742.34;;;4.99;100.00
30463;BME280;17256;43.618;25.336;2023-04-08T05:24:43;100955.94;;;6.60;100.00
30463;BME280;17256;43.618;25.336;2023-04-08T05:27:09;100858.56;;;6.10;100.00
30463;BME280;17256;43.618;25.336;2023-04-08T05:29:34;101002.78;;;6.90;100.00
30463;BME280;17256;43.618;25.336;2023-04-08T05:32:00;100995.25;;;6.84;100.00
30463;BME280;17256;43.618;25.336;2023-04-08T05:34:52;101189.59;;;7.97;100.00
30463;BME280;17256;43.618;25.336;2023-04-08T05:42:22;101159.53;;;8.38;100.00
30463;BME280;17256;43.618;25.336;2023-04-08T05:46:15;100732.56;;;5.91;100.00
30463;BME280;17256;43.618;25.336;2023-04-08T05:50:00;101163.97;;;8.39;100.00
30463;BME280;17256;43.618;25.336;2023-04-08T05:53:29;101159.34;;;8.56;100.00
30463;BME280;17256;43.618;25.336;2023-04-08T05:57:25;101156.06;;;8.85;100.00
30463;BME280;17256;43.618;25.336;2023-04-08T06:00:39;100831.47;;;7.00;100.00
30463;BME280;17256;43.618;25.336;2023-04-08T06:04:27;100858.38;;;7.68;100.00
30463;BME280;17256;43.618;25.336;2023-04-08T06:08:28;100834.13;;;7.73;100.00
30463;BME280;17256;43.618;25.336;2023-04-08T06:12:38;101158.31;;;9.91;100.00
30463;BME280;17256;43.618;25.336;2023-04-08T06:22:53;100680.66;;;6.73;100.00
30463;BME280;17256;43.618;25.336;2023-04-08T06:25:19;100857.53;;;7.59;100.00
30463;BME280;17256;43.618;25.336;2023-04-08T06:27:44;101052.69;;;8.79;100.00
30463;BME280;17256;43.618;25.336;2023-04-08T06:30:10;100883.75;;;7.93;100.00
30463;BME280;17256;43.618;25.336;2023-04-08T06:32:36;101171.38;;;9.88;100.00
30463;BME280;17256;43.618;25.336;2023-04-08T06:35:01;101135.50;;;9.98;100.00
30463;BME280;17256;43.618;25.336;2023-04-08T06:37:27;100988.47;;;9.12;100.00
30463;BME280;17256;43.618;25.336;2023-04-08T06:39:54;100938.59;;;8.63;100.00
30463;BME280;17256;43.618;25.336;2023-04-08T06:42:21;100824.47;;;7.93;100.00
30463;BME280;17256;43.618;25.336;2023-04-08T06:45:01;100955.56;;;8.89;100.00
30463;BME280;17256;43.618;25.336;2023-04-08T06:47:26;100987.16;;;9.08;100.00
30463;BME280;17256;43.618;25.336;2023-04-08T06:49:52;100855.22;;;8.43;100.00
30463;BME280;17256;43.618;25.336;2023-04-08T06:52:18;100783.84;;;7.82;100.00
30463;BME280;17256;43.618;25.336;2023-04-08T06:54:44;101010.75;;;9.40;100.00
30463;BME280;17256;43.618;25.336;2023-04-08T06:57:10;100884.59;;;8.80;100.00
30463;BME280;17256;43.618;25.336;2023-04-08T06:59:36;100989.81;;;9.16;99.89
30463;BME280;17256;43.618;25.336;2023-04-08T07:02:02;100730.72;;;7.77;100.00
30463;BME280;17256;43.618;25.336;2023-04-08T07:04:28;100877.50;;;8.93;99.57
30463;BME280;17256;43.618;25.336;2023-04-08T07:06:54;100802.50;;;8.49;98.27
30463;BME280;17256;43.618;25.336;2023-04-08T07:09:19;100876.25;;;8.73;96.72
30463;BME280;17256;43.618;25.336;2023-04-08T07:11:45;100934.19;;;8.93;97.80
30463;BME280;17256;43.618;25.336;2023-04-08T07:14:11;100859.53;;;8.68;97.91
30463;BME280;17256;43.618;25.336;2023-04-08T07:16:36;100906.22;;;8.67;98.85
30463;BME280;17256;43.618;25.336;2023-04-08T07:19:02;100830.09;;;8.39;98.19
30463;BME280;17256;43.618;25.336;2023-04-08T07:21:28;100860.06;;;8.63;99.18
30463;BME280;17256;43.618;25.336;2023-04-08T07:23:55;101033.13;;;9.52;98.78
30463;BME280;17256;43.618;25.336;2023-04-08T07:26:20;100975.97;;;9.41;98.49
30463;BME280;17256;43.618;25.336;2023-04-08T07:28:46;100881.44;;;9.14;97.33
30463;BME280;17256;43.618;25.336;2023-04-08T07:31:14;100880.22;;;9.16;96.33
30463;BME280;17256;43.618;25.336;2023-04-08T07:33:42;100926.09;;;9.60;92.78
30463;BME280;17256;43.618;25.336;2023-04-08T07:36:09;101143.16;;;11.01;90.77
30463;BME280;17256;43.618;25.336;2023-04-08T07:38:36;100928.06;;;9.89;89.35
30463;BME280;17256;43.618;25.336;2023-04-08T07:41:02;100943.13;;;9.93;87.70
30463;BME280;17256;43.618;25.336;2023-04-08T07:46:16;101015.59;;;10.81;84.30
30463;BME280;17256;43.618;25.336;2023-04-08T07:49:14;101186.91;;;11.91;82.59
30463;BME280;17256;43.618;25.336;2023-04-08T07:54:30;101092.72;;;11.59;79.75
30463;BME280;17256;43.618;25.336;2023-04-08T07:56:58;101023.16;;;11.44;77.15
30463;BME280;17256;43.618;25.336;2023-04-08T07:59:24;101076.53;;;12.07;77.74
30463;BME280;17256;43.618;25.336;2023-04-08T08:01:49;101193.22;;;12.98;72.73
30463;BME280;17256;43.618;25.336;2023-04-08T08:04:15;101191.94;;;13.22;72.38
30463;BME280;17256;43.618;25.336;2023-04-08T08:06:41;100869.41;;;11.28;71.93
30463;BME280;17256;43.618;25.336;2023-04-08T08:09:08;100742.38;;;10.62;72.12
30463;BME280;17256;43.618;25.336;2023-04-08T08:11:34;100936.31;;;11.56;70.11
30463;BME280;17256;43.618;25.336;2023-04-08T08:14:00;101026.63;;;12.45;69.46
30463;BME280;17256;43.618;25.336;2023-04-08T08:16:30;100712.81;;;10.64;68.39
30463;BME280;17256;43.618;25.336;2023-04-08T08:18:59;100900.59;;;11.63;68.75
30463;BME280;17256;43.618;25.336;2023-04-08T08:21:25;101001.00;;;12.44;68.17
30463;BME280;17256;43.618;25.336;2023-04-08T08:23:54;101049.75;;;12.50;68.23
30463;BME280;17256;43.618;25.336;2023-04-08T08:26:21;101040.28;;;12.04;68.55
30463;BME280;17256;43.618;25.336;2023-04-08T08:28:47;101015.56;;;12.10;68.57
30463;BME280;17256;43.618;25.336;2023-04-08T08:31:13;100956.56;;;11.70;68.33
30463;BME280;17256;43.618;25.336;2023-04-08T08:33:38;101013.94;;;12.16;68.16
30463;BME280;17256;43.618;25.336;2023-04-08T08:36:04;100938.78;;;11.94;67.28
30463;BME280;17256;43.618;25.336;2023-04-08T08:38:31;100995.41;;;12.38;67.63
30463;BME280;17256;43.618;25.336;2023-04-08T08:52:23;101182.13;;;14.02;65.21
30463;BME280;17256;43.618;25.336;2023-04-08T08:55:13;101029.50;;;13.06;64.88
30463;BME280;17256;43.618;25.336;2023-04-08T09:00:56;100744.50;;;11.71;63.12
30463;BME280;17256;43.618;25.336;2023-04-08T09:09:11;100932.72;;;12.81;63.27
30463;BME280;17256;43.618;25.336;2023-04-08T09:11:42;101055.44;;;13.66;62.16
30463;BME280;17256;43.618;25.336;2023-04-08T09:14:18;101210.75;;;14.55;64.02
30463;BME280;17256;43.618;25.336;2023-04-08T09:16:44;100932.56;;;12.96;62.91
30463;BME280;17256;43.618;25.336;2023-04-08T09:19:11;101034.44;;;13.65;62.46
30463;BME280;17256;43.618;25.336;2023-04-08T09:21:38;100772.66;;;12.08;62.13
30463;BME280;17256;43.618;25.336;2023-04-08T09:24:06;100745.50;;;11.98;61.36
30463;BME280;17256;43.618;25.336;2023-04-08T09:26:36;100951.38;;;13.40;60.05
30463;BME280;17256;43.618;25.336;2023-04-08T09:29:08;100945.91;;;13.66;60.60
30463;BME280;17256;43.618;25.336;2023-04-08T09:31:38;101084.22;;;14.70;61.58
30463;BME280;17256;43.618;25.336;2023-04-08T09:34:15;100896.13;;;13.13;60.65
30463;BME280;17256;43.618;25.336;2023-04-08T09:36:45;101037.22;;;14.04;59.78
30463;BME280;17256;43.618;25.336;2023-04-08T09:39:11;101041.47;;;14.07;59.64
30463;BME280;17256;43.618;25.336;2023-04-08T09:41:38;100964.72;;;13.23;59.60
30463;BME280;17256;43.618;25.336;2023-04-08T09:44:08;101038.28;;;13.83;60.58
30463;BME280;17256;43.618;25.336;2023-04-08T09:47:12;101219.69;;;15.10;59.46
30463;BME280;17256;43.618;25.336;2023-04-08T09:49:45;100975.81;;;13.63;59.06
30463;BME280;17256;43.618;25.336;2023-04-08T09:52:23;100750.91;;;12.20;58.96
30463;BME280;17256;43.618;25.336;2023-04-08T09:55:05;101055.25;;;13.87;58.41
30463;BME280;17256;43.618;25.336;2023-04-08T10:05:26;100887.06;;;13.79;57.80
30463;BME280;17256;43.618;25.336;2023-04-08T10:07:56;100942.03;;;14.40;57.20
30463;BME280;17256;43.618;25.336;2023-04-08T10:10:34;101072.91;;;15.50;55.76
30463;BME280;17256;43.618;25.336;2023-04-08T10:13:09;101237.66;;;16.30;54.78
30463;BME280;17256;43.618;25.336;2023-04-08T10:15:45;101181.13;;;16.31;54.95
30463;BME280;17256;43.618;25.336;2023-04-08T10:20:47;100761.16;;;13.78;54.88
30463;BME280;17256;43.618;25.336;2023-04-08T10:23:17;100990.50;;;15.14;56.48
30463;BME280;17256;43.618;25.336;2023-04-08T10:25:46;101042.50;;;15.36;57.77
30463;BME280;17256;43.618;25.336;2023-04-08T10:30:51;100966.34;;;14.83;56.61
30463;BME280;17256;43.618;25.336;2023-04-08T10:33:20;101192.16;;;16.13;57.77
30463;BME280;17256;43.618;25.336;2023-04-08T10:36:13;100909.28;;;14.50;55.44
30463;BME280;17256;43.618;25.336;2023-04-08T10:38:54;100905.66;;;14.50;56.97
30463;BME280;17256;43.618;25.336;2023-04-08T10:41:25;100789.19;;;13.81;57.71
30463;BME280;17256;43.618;25.336;2023-04-08T10:43:54;100927.75;;;14.36;56.69
30463;BME280;17256;43.618;25.336;2023-04-08T10:46:22;100918.50;;;13.98;58.06
30463;BME280;17256;43.618;25.336;2023-04-08T10:49:21;100885.78;;;13.81;56.71
30463;BME280;17256;43.618;25.336;2023-04-08T10:52:24;101195.47;;;15.83;55.18
30463;BME280;17256;43.618;25.336;2023-04-08T10:54:52;101097.00;;;15.36;54.81
30463;BME280;17256;43.618;25.336;2023-04-08T10:57:29;100845.31;;;14.40;55.20
30463;BME280;17256;43.618;25.336;2023-04-08T11:00:00;100930.88;;;14.73;54.28
30463;BME280;17256;43.618;25.336;2023-04-08T11:02:34;100920.31;;;14.63;54.22
30463;BME280;17256;43.618;25.336;2023-04-08T11:05:11;101088.81;;;15.16;54.94
30463;BME280;17256;43.618;25.336;2023-04-08T11:08:06;101180.16;;;16.19;53.85
30463;BME280;17256;43.618;25.336;2023-04-08T11:11:15;101170.81;;;16.13;53.43
30463;BME280;17256;43.618;25.336;2023-04-08T11:14:43;100987.66;;;14.75;54.39
30463;BME280;17256;43.618;25.336;2023-04-08T11:17:32;100845.59;;;14.12;54.57
30463;BME280;17256;43.618;25.336;2023-04-08T11:20:16;100777.72;;;13.91;54.96
30463;BME280;17256;43.618;25.336;2023-04-08T11:23:00;100812.47;;;14.05;55.54
30463;BME280;17256;43.618;25.336;2023-04-08T11:26:16;101161.53;;;15.94;55.22
30463;BME280;17256;43.618;25.336;2023-04-08T11:29:05;100999.97;;;15.37;56.11
30463;BME280;17256;43.618;25.336;2023-04-08T11:31:31;100734.19;;;13.80;56.14
30463;BME280;17256;43.618;25.336;2023-04-08T11:33:58;100722.22;;;13.21;55.54
30463;BME280;17256;43.618;25.336;2023-04-08T11:36:28;100919.88;;;14.66;55.97
30463;BME280;17256;43.618;25.336;2023-04-08T11:38:57;101149.56;;;16.39;56.99
30463;BME280;17256;43.618;25.336;2023-04-08T11:41:23;100970.38;;;15.31;55.67
30463;BME280;17256;43.618;25.336;2023-04-08T11:43:54;100973.69;;;15.15;54.60
30463;BME280;17256;43.618;25.336;2023-04-08T11:46:24;101038.88;;;15.87;53.17
30463;BME280;17256;43.618;25.336;2023-04-08T11:49:16;101019.72;;;15.79;54.32
30463;BME280;17256;43.618;25.336;2023-04-08T11:52:08;101008.03;;;15.77;55.41
30463;BME280;17256;43.618;25.336;2023-04-08T11:54:40;101136.06;;;16.74;54.44
30463;BME280;17256;43.618;25.336;2023-04-08T11:57:08;100885.41;;;15.07;55.05
30463;BME280;17256;43.618;25.336;2023-04-08T11:59:35;101128.00;;;16.41;55.32
30463;BME280;17256;43.618;25.336;2023-04-08T12:02:04;100698.97;;;13.75;55.69
30463;BME280;17256;43.618;25.336;2023-04-08T12:04:32;100893.75;;;15.00;56.05
30463;BME280;17256;43.618;25.336;2023-04-08T12:06:58;100782.84;;;14.32;56.14
30463;BME280;17256;43.618;25.336;2023-04-08T12:09:24;101036.59;;;16.03;55.69
30463;BME280;17256;43.618;25.336;2023-04-08T12:11:50;100943.94;;;15.04;55.25
30463;BME280;17256;43.618;25.336;2023-04-08T12:14:17;100973.25;;;14.54;56.86
30463;BME280;17256;43.618;25.336;2023-04-08T12:16:43;101057.41;;;15.35;56.42
30463;BME280;17256;43.618;25.336;2023-04-08T12:19:11;100769.94;;;13.42;58.01
30463;BME280;17256;43.618;25.336;2023-04-08T12:21:38;100974.88;;;14.81;57.46
30463;BME280;17256;43.618;25.336;2023-04-08T12:24:04;101126.34;;;16.02;58.00
30463;BME280;17256;43.618;25.336;2023-04-08T12:26:33;100738.69;;;13.68;57.37
30463;BME280;17256;43.618;25.336;2023-04-08T12:32:46;100958.50;;;14.80;58.52
30463;BME280;17256;43.618;25.336;2023-04-08T12:35:15;100678.28;;;13.40;57.85
30463;BME280;17256;43.618;25.336;2023-04-08T12:37:41;101006.66;;;15.17;57.29
30463;BME280;17256;43.618;25.336;2023-04-08T12:40:07;101027.50;;;15.19;57.94
30463;BME280;17256;43.618;25.336;2023-04-08T12:42:35;100836.69;;;14.16;57.75
30463;BME280;17256;43.618;25.336;2023-04-08T12:45:01;100746.69;;;13.82;58.58
30463;BME280;17256;43.618;25.336;2023-04-08T12:47:27;100971.09;;;15.20;57.24
30463;BME280;17256;43.618;25.336;2023-04-08T12:49:52;100921.13;;;14.70;57.50
30463;BME280;17256;43.618;25.336;2023-04-08T12:52:18;100770.31;;;13.72;56.64
30463;BME280;17256;43.618;25.336;2023-04-08T12:54:44;100767.97;;;13.62;57.24
30463;BME280;17256;43.618;25.336;2023-04-08T12:57:09;100854.91;;;14.24;57.28
30463;BME280;17256;43.618;25.336;2023-04-08T12:59:35;100832.28;;;13.96;56.87
30463;BME280;17256;43.618;25.336;2023-04-08T13:02:02;100799.19;;;13.76;57.41
30463;BME280;17256;43.618;25.336;2023-04-08T13:04:28;101057.00;;;15.38;56.97
30463;BME280;17256;43.618;25.336;2023-04-08T13:06:53;100700.59;;;13.18;57.38
30463;BME280;17256;43.618;25.336;2023-04-08T13:09:21;100819.22;;;14.23;56.61
30463;BME280;17256;43.618;25.336;2023-04-08T13:11:47;100978.31;;;15.21;57.44
30463;BME280;17256;43.618;25.336;2023-04-08T13:14:16;100843.13;;;14.55;56.74
30463;BME280;17256;43.618;25.336;2023-04-08T13:20:52;100752.63;;;13.86;55.71
30463;BME280;17256;43.618;25.336;2023-04-08T13:23:19;100883.94;;;14.60;57.05
30463;BME280;17256;43.618;25.336;2023-04-08T13:25:50;100651.75;;;13.39;56.03
30463;BME280;17256;43.618;25.336;2023-04-08T13:28:15;101008.63;;;15.48;56.06
30463;BME280;17256;43.618;25.336;2023-04-08T13:30:42;100874.00;;;14.45;56.24
30463;BME280;17256;43.618;25.336;2023-04-08T13:33:08;101017.16;;;15.46;55.95
30463;BME280;17256;43.618;25.336;2023-04-08T13:35:34;100713.09;;;13.99;56.16
30463;BME280;17256;43.618;25.336;2023-04-08T13:38:03;100945.09;;;15.59;55.19
30463;BME280;17256;43.618;25.336;2023-04-08T13:40:29;100957.84;;;15.67;55.61
30463;BME280;17256;43.618;25.336;2023-04-08T13:42:54;100801.16;;;14.71;55.32
30463;BME280;17256;43.618;25.336;2023-04-08T13:45:21;100955.34;;;15.59;54.98
30463;BME280;17256;43.618;25.336;2023-04-08T13:47:47;100909.59;;;15.50;56.49
30463;BME280;17256;43.618;25.336;2023-04-08T13:50:13;100950.41;;;15.61;55.62
30463;BME280;17256;43.618;25.336;2023-04-08T13:52:40;100732.78;;;14.15;56.69
30463;BME280;17256;43.618;25.336;2023-04-08T13:55:06;100997.81;;;16.03;57.34
30463;BME280;17256;43.618;25.336;2023-04-08T13:57:32;100772.34;;;14.54;57.00
30463;BME280;17256;43.618;25.336;2023-04-08T13:59:58;100887.28;;;15.45;56.66
30463;BME280;17256;43.618;25.336;2023-04-08T14:02:27;100888.22;;;15.32;56.46
30463;BME280;17256;43.618;25.336;2023-04-08T14:04:54;100544.44;;;13.11;56.86
30463;BME280;17256;43.618;25.336;2023-04-08T14:07:19;100892.25;;;14.98;58.73